Time;durP1;ratioP1;P1;durP2;ratioP2;P2;SDS_P1;SDS_P2;PMS_P1;PMS_P2;Temp;Humidity;BMP_temperature;BMP_pressure;BME280_temperature;BME280_humidity;BME280_pressure;Samples;Min_cycle;Max_cycle;Signal;HPM_P1;HPM_P2
2023/06/22 00:02:24;;;;;;;6.73;4.23;;;;;;;18.54;98.49;101754.28;4886156;29;20054;-92
2023/06/22 00:04:49;;;;;;;5.35;4.43;;;;;;;18.55;98.91;101746.94;4902698;29;20024;-92
2023/06/22 00:07:14;;;;;;;6.30;4.40;;;;;;;18.47;99.94;101745.66;4901989;29;20036;-92
2023/06/22 00:09:40;;;;;;;6.70;4.27;;;;;;;18.45;99.51;101742.44;4905967;29;20032;-92
2023/06/22 00:12:05;;;;;;;6.43;4.30;;;;;;;18.36;100.00;101750.41;4923647;29;20025;-92
2023/06/22 00:14:31;;;;;;;5.03;4.20;;;;;;;18.28;100.00;101754.56;4909929;29;20047;-92
2023/06/22 00:16:57;;;;;;;4.70;4.00;;;;;;;18.29;100.00;101756.16;4908606;29;20040;-92
2023/06/22 00:19:23;;;;;;;5.05;4.25;;;;;;;18.19;100.00;101748.16;4896021;29;20025;-93
2023/06/22 00:21:52;;;;;;;8.55;4.38;;;;;;;18.14;100.00;101748.19;4895684;29;20032;-93
2023/06/22 00:24:21;;;;;;;5.63;4.30;;;;;;;18.07;100.00;101751.25;4903678;29;20112;-92
2023/06/22 00:26:48;;;;;;;7.63;4.27;;;;;;;18.04;100.00;101761.88;4894356;29;20025;-94
2023/06/22 00:29:14;;;;;;;5.77;3.43;;;;;;;17.94;100.00;101749.19;4878027;29;20293;-91
2023/06/22 00:31:39;;;;;;;5.80;4.38;;;;;;;17.87;100.00;101749.53;4884882;29;20021;-93
2023/06/22 00:34:08;;;;;;;6.90;4.50;;;;;;;17.82;100.00;101754.97;4884371;29;20489;-93
2023/06/22 00:36:34;;;;;;;5.63;4.28;;;;;;;17.80;100.00;101762.59;4898587;29;20516;-92
2023/06/22 00:38:59;;;;;;;5.97;4.38;;;;;;;17.78;100.00;101762.88;4901526;29;20028;-92
2023/06/22 00:41:28;;;;;;;5.93;4.33;;;;;;;17.71;100.00;101756.97;4884726;29;20033;-92
2023/06/22 00:43:53;;;;;;;7.10;4.70;;;;;;;17.65;100.00;101747.25;4901820;29;20036;-92
2023/06/22 00:46:19;;;;;;;9.20;4.17;;;;;;;17.68;100.00;101741.25;4884881;29;20032;-91
2023/06/22 00:48:44;;;;;;;6.77;4.53;;;;;;;17.64;100.00;101740.19;4901562;29;20078;-93
2023/06/22 00:51:10;;;;;;;7.30;4.10;;;;;;;17.61;100.00;101746.22;4903843;29;20031;-93
2023/06/22 00:53:37;;;;;;;6.80;5.15;;;;;;;17.56;100.00;101738.91;4902680;29;20028;-93
2023/06/22 00:56:03;;;;;;;6.50;5.10;;;;;;;17.53;100.00;101750.31;4885324;29;20046;-94
2023/06/22 00:58:29;;;;;;;5.63;4.95;;;;;;;17.53;100.00;101750.31;4886598;29;20032;-93
2023/06/22 01:00:55;;;;;;;9.40;5.47;;;;;;;17.51;100.00;101739.78;4896483;29;20043;-93
2023/06/22 01:03:20;;;;;;;8.03;6.33;;;;;;;17.42;100.00;101727.94;4915483;29;20463;-93
2023/06/22 01:05:47;;;;;;;8.20;7.32;;;;;;;17.39;100.00;101737.41;4888719;29;20496;-93
2023/06/22 01:08:25;;;;;;;9.60;7.05;;;;;;;17.40;100.00;101725.50;4893520;29;20068;-92
2023/06/22 01:10:52;;;;;;;9.23;7.07;;;;;;;17.41;100.00;101737.94;4905877;29;20073;-94
2023/06/22 01:13:35;;;;;;;10.43;7.30;;;;;;;17.41;100.00;101732.53;4922856;29;20304;-92
2023/06/22 01:18:40;;;;;;;9.88;7.20;;;;;;;17.33;100.00;101741.28;5141540;23;20033;-94
2023/06/22 01:24:26;;;;;;;9.00;7.95;;;;;;;17.33;100.00;101732.31;5038035;23;20057;-92
2023/06/22 01:27:30;;;;;;;11.07;7.50;;;;;;;17.24;100.00;101723.97;4922082;29;20028;-92
2023/06/22 01:30:00;;;;;;;11.63;7.80;;;;;;;17.21;100.00;101721.81;4904990;29;20033;-91
2023/06/22 01:32:30;;;;;;;10.73;7.53;;;;;;;17.38;100.00;101743.13;4907998;29;20021;-92
2023/06/22 01:34:57;;;;;;;9.50;7.68;;;;;;;17.48;100.00;101742.25;4909097;29;20020;-92
2023/06/22 01:37:22;;;;;;;9.87;7.07;;;;;;;17.59;100.00;101738.34;4926636;29;20032;-91
2023/06/22 01:39:49;;;;;;;10.43;7.73;;;;;;;17.68;100.00;101738.56;4925044;29;20864;-92
2023/06/22 01:42:14;;;;;;;9.60;7.78;;;;;;;17.78;100.00;101734.94;4916070;29;20059;-92
2023/06/22 01:44:40;;;;;;;11.60;7.77;;;;;;;17.85;100.00;101721.88;4906919;29;20033;-93
2023/06/22 01:47:07;;;;;;;11.18;7.72;;;;;;;17.90;100.00;101724.53;4901263;29;20032;-93
2023/06/22 01:49:32;;;;;;;11.48;8.30;;;;;;;17.91;100.00;101717.22;4902781;29;20039;-93
2023/06/22 01:57:09;;;;;;;9.93;8.38;;;;;;;17.61;100.00;101705.56;2671462;27;20049;-94
2023/06/22 02:05:11;;;;;;;16.07;9.80;;;;;;;17.31;100.00;101699.28;5164304;23;20518;-92
2023/06/22 02:08:16;;;;;;;16.00;11.07;;;;;;;17.23;100.00;101692.56;4916245;29;20296;-93
2023/06/22 02:10:53;;;;;;;12.52;10.05;;;;;;;17.15;100.00;101693.19;4894310;29;20406;-92
2023/06/22 02:13:31;;;;;;;13.60;10.55;;;;;;;17.21;100.00;101711.81;4881975;29;20029;-93
2023/06/22 02:16:00;;;;;;;13.35;9.70;;;;;;;17.19;100.00;101703.16;4882361;29;20040;-92
2023/06/22 02:19:09;;;;;;;13.70;9.60;;;;;;;17.23;100.00;101725.06;4899955;29;20389;-93
2023/06/22 02:22:23;;;;;;;;;;;;;;;;;;;;;
2023/06/22 02:25:15;;;;;;;11.68;9.43;;;;;;;17.19;100.00;101727.53;4822530;29;20056;-93
2023/06/22 02:27:49;;;;;;;11.68;8.88;;;;;;;17.01;100.00;101698.41;4824519;29;20775;-93
2023/06/22 02:36:21;;;;;;;12.80;10.23;;;;;;;17.08;100.00;101705.13;4866171;29;20300;-93
2023/06/22 02:38:48;;;;;;;11.20;9.38;;;;;;;17.02;100.00;101695.41;4900054;29;20056;-92
2023/06/22 02:41:17;;;;;;;12.80;9.95;;;;;;;17.02;100.00;101698.13;5051947;23;20051;-92
2023/06/22 02:43:46;;;;;;;13.77;9.18;;;;;;;16.98;100.00;101696.25;4931229;29;20053;-93
2023/06/22 02:46:13;;;;;;;14.30;10.70;;;;;;;16.94;100.00;101695.97;4916523;29;20024;-93
2023/06/22 02:48:42;;;;;;;13.63;10.18;;;;;;;16.94;100.00;101695.97;4916487;29;20107;-92
2023/06/22 02:51:08;;;;;;;13.75;9.82;;;;;;;16.92;100.00;101690.03;4938346;23;20118;-92
2023/06/22 02:53:33;;;;;;;17.08;10.75;;;;;;;16.83;100.00;101689.00;4935868;29;20043;-93
2023/06/22 02:56:01;;;;;;;13.57;10.20;;;;;;;16.80;100.00;101691.16;4930582;29;20036;-93
2023/06/22 02:58:26;;;;;;;15.25;10.05;;;;;;;16.74;100.00;101696.88;4940381;29;20027;-93
2023/06/22 03:06:22;;;;;;;15.05;10.45;;;;;;;16.58;100.00;101688.84;5838709;23;20048;-93
2023/06/22 03:08:48;;;;;;;13.60;10.50;;;;;;;16.53;100.00;101680.75;4923065;29;20060;-95
2023/06/22 03:11:13;;;;;;;17.73;11.17;;;;;;;16.49;100.00;101666.97;4937637;29;20028;-94
2023/06/22 03:13:38;;;;;;;12.77;10.50;;;;;;;16.43;100.00;101662.66;4927811;29;20493;-94
2023/06/22 03:16:04;;;;;;;15.30;10.07;;;;;;;16.43;100.00;101670.78;4905030;29;20087;-93
2023/06/22 03:18:31;;;;;;;14.13;11.33;;;;;;;16.39;100.00;101668.91;4919862;29;20107;-94
2023/06/22 03:20:56;;;;;;;14.48;11.18;;;;;;;16.38;100.00;101668.13;4919823;29;20625;-94
2023/06/22 03:23:22;;;;;;;17.02;10.88;;;;;;;16.38;100.00;101665.41;4901900;29;20068;-94
2023/06/22 03:25:47;;;;;;;14.47;11.10;;;;;;;16.37;100.00;101655.69;4919113;29;20520;-94
2023/06/22 03:28:12;;;;;;;14.13;10.67;;;;;;;16.33;100.00;101651.91;4916693;29;20035;-94
2023/06/22 03:30:38;;;;;;;13.80;11.13;;;;;;;16.38;100.00;101662.72;4917594;29;20032;-93
2023/06/22 03:33:03;;;;;;;15.35;11.73;;;;;;;16.35;100.00;101660.56;4911485;29;20032;-91
2023/06/22 03:35:29;;;;;;;13.13;11.20;;;;;;;16.33;100.00;101663.53;4916398;29;20031;-92
2023/06/22 03:37:55;;;;;;;14.67;11.17;;;;;;;16.30;100.00;101657.84;4916131;29;20167;-92
2023/06/22 03:40:21;;;;;;;17.13;12.93;;;;;;;16.25;100.00;101652.47;4917657;29;20424;-92
2023/06/22 03:42:46;;;;;;;15.60;11.82;;;;;;;16.29;100.00;101657.06;4912895;29;20035;-89
2023/06/22 03:45:12;;;;;;;17.60;13.10;;;;;;;16.27;100.00;101650.28;4894989;29;20045;-88
2023/06/22 03:47:37;;;;;;;20.77;13.33;;;;;;;16.26;100.00;101652.19;4914201;29;20040;-90
2023/06/22 03:50:03;;;;;;;14.25;12.32;;;;;;;16.28;100.00;101652.72;4916521;29;20048;-92
2023/06/22 03:52:32;;;;;;;15.00;11.60;;;;;;;16.29;100.00;101646.25;4931942;29;20048;-96
2023/06/22 03:54:58;;;;;;;20.47;12.47;;;;;;;16.34;100.00;101651.59;4898916;29;20324;-96
2023/06/22 03:57:28;;;;;;;15.68;12.43;;;;;;;16.39;100.00;101650.81;4884857;29;20016;-96
2023/06/22 03:59:57;;;;;;;17.33;11.90;;;;;;;16.42;100.00;101644.84;4906258;29;20368;-95
2023/06/22 04:02:23;;;;;;;19.08;13.43;;;;;;;16.44;100.00;101649.97;4909156;29;20036;-90
2023/06/22 04:04:48;;;;;;;18.73;13.17;;;;;;;16.46;100.00;101642.38;4912870;29;20035;-89
2023/06/22 04:07:13;;;;;;;16.90;12.85;;;;;;;16.52;100.00;101645.88;4912798;29;20542;-89
2023/06/22 04:09:39;;;;;;;18.63;12.37;;;;;;;16.59;100.00;101644.47;4910369;29;20032;-88
2023/06/22 04:12:05;;;;;;;16.53;11.70;;;;;;;16.67;100.00;101645.00;4911977;29;20028;-89
2023/06/22 04:14:30;;;;;;;15.98;12.13;;;;;;;16.74;100.00;101651.72;4914855;29;20037;-89
2023/06/22 04:16:55;;;;;;;16.97;12.60;;;;;;;16.72;100.00;101643.06;4917625;29;20091;-89
2023/06/22 04:19:21;;;;;;;18.00;12.07;;;;;;;16.80;100.00;101645.16;4915657;29;20036;-89
2023/06/22 04:21:48;;;;;;;20.23;13.35;;;;;;;16.84;100.00;101648.13;4918150;29;20734;-89
2023/06/22 04:24:13;;;;;;;15.37;11.40;;;;;;;16.93;100.00;101653.75;4914737;29;20032;-87
2023/06/22 04:26:41;;;;;;;17.08;12.20;;;;;;;17.00;100.00;101645.34;4915373;29;20036;-88
2023/06/22 04:29:08;;;;;;;18.52;12.55;;;;;;;17.07;100.00;101648.56;4910072;29;20091;-87
2023/06/22 04:31:36;;;;;;;15.60;12.05;;;;;;;17.16;100.00;101656.88;4916645;29;20394;-86
2023/06/22 04:34:06;;;;;;;16.88;12.70;;;;;;;17.15;100.00;101647.94;4917727;29;20028;-86
2023/06/22 04:36:40;;;;;;;14.47;11.87;;;;;;;17.21;100.00;101654.13;4915473;29;20083;-87
2023/06/22 04:39:09;;;;;;;19.53;13.60;;;;;;;17.28;100.00;101662.75;4915874;29;20311;-89
2023/06/22 04:41:42;;;;;;;16.70;13.30;;;;;;;17.40;100.00;101648.84;4917849;29;20040;-89
2023/06/22 04:44:09;;;;;;;18.75;12.52;;;;;;;17.54;100.00;101654.38;4918436;29;20020;-88
2023/06/22 04:46:38;;;;;;;19.40;12.95;;;;;;;17.67;100.00;101656.44;4916898;29;20123;-89
2023/06/22 04:49:12;;;;;;;18.58;12.55;;;;;;;17.80;100.00;101649.53;4917993;29;20051;-89
2023/06/22 04:51:40;;;;;;;15.20;12.02;;;;;;;18.09;100.00;101647.91;4917723;29;20028;-89
2023/06/22 04:54:06;;;;;;;14.77;12.18;;;;;;;18.27;100.00;101657.19;4917769;29;20048;-90
2023/06/22 04:56:32;;;;;;;16.10;11.60;;;;;;;18.49;100.00;101656.63;4913388;29;20099;-88
2023/06/22 04:58:58;;;;;;;20.02;12.32;;;;;;;18.57;100.00;101666.03;4910126;29;20056;-89
2023/06/22 05:01:25;;;;;;;18.45;11.10;;;;;;;18.57;100.00;101661.44;4899608;29;20037;-89
2023/06/22 05:03:51;;;;;;;15.63;10.85;;;;;;;18.59;100.00;101656.53;4899242;29;20507;-90
2023/06/22 05:06:17;;;;;;;17.43;11.80;;;;;;;18.67;100.00;101657.78;4909358;29;20111;-90
2023/06/22 05:08:43;;;;;;;15.98;12.00;;;;;;;18.78;100.00;101653.00;4916105;29;20032;-89
2023/06/22 05:11:09;;;;;;;16.67;11.68;;;;;;;19.33;100.00;101657.88;4917465;29;20020;-89
2023/06/22 05:13:34;;;;;;;17.73;11.15;;;;;;;19.76;100.00;101656.06;4900220;29;20135;-91
2023/06/22 05:16:02;;;;;;;14.23;10.50;;;;;;;20.00;99.01;101655.09;4915283;29;20036;-92
2023/06/22 05:18:31;;;;;;;14.75;11.13;;;;;;;19.87;99.04;101662.13;4918283;29;20052;-89
2023/06/22 05:20:58;;;;;;;15.20;11.60;;;;;;;19.66;100.00;101666.00;4916234;29;20133;-92
2023/06/22 05:23:23;;;;;;;15.40;11.47;;;;;;;19.51;100.00;101669.81;4913480;29;20399;-88
2023/06/22 05:25:49;;;;;;;15.68;11.48;;;;;;;19.38;100.00;101665.13;4915496;29;20457;-92
2023/06/22 05:28:14;;;;;;;14.87;11.37;;;;;;;19.26;100.00;101662.09;4916704;29;20047;-91
2023/06/22 05:33:14;;;;;;;17.00;12.77;;;;;;;18.98;100.00;101670.13;5205402;23;20051;-90
2023/06/22 05:38:34;;;;;;;18.48;13.15;;;;;;;18.61;100.00;101624.47;5551807;23;20473;-93
2023/06/22 05:40:59;;;;;;;18.33;13.55;;;;;;;18.67;100.00;101640.66;5136557;23;20018;-94
2023/06/22 05:56:28;;;;;;;18.23;14.90;;;;;;;19.44;100.00;101628.63;4920468;29;20549;-95
2023/06/22 05:59:43;;;;;;;19.48;15.02;;;;;;;19.77;100.00;101650.31;4911675;29;20460;-95
2023/06/22 06:05:46;;;;;;;23.85;13.55;;;;;;;20.03;100.00;101633.56;4913803;29;20047;-95
2023/06/22 06:08:12;;;;;;;20.58;15.35;;;;;;;20.25;100.00;101638.28;4899292;29;20048;-93
2023/06/22 06:10:39;;;;;;;19.20;13.87;;;;;;;20.51;100.00;101654.06;4897019;29;20052;-93
2023/06/22 06:13:04;;;;;;;18.58;14.38;;;;;;;20.60;100.00;101643.25;4897190;29;20540;-94
2023/06/22 06:15:36;;;;;;;21.02;15.40;;;;;;;20.68;100.00;101633.56;4886020;29;20115;-94
2023/06/22 06:18:25;;;;;;;22.30;15.20;;;;;;;20.88;100.00;101657.63;4862316;29;20045;-88
2023/06/22 06:21:29;;;;;;;21.42;14.27;;;;;;;21.04;100.00;101654.53;4892140;29;20037;-89
2023/06/22 06:24:40;;;;;;;20.05;15.73;;;;;;;20.98;98.98;101610.28;4822237;29;20038;-89
2023/06/22 06:27:58;;;;;;;19.55;14.77;;;;;;;21.22;99.07;101616.50;4785376;29;20050;-87
2023/06/22 06:30:37;;;;;;;20.02;15.73;;;;;;;21.35;96.66;101623.78;4817595;29;20149;-86
2023/06/22 06:33:09;;;;;;;24.80;15.13;;;;;;;21.57;96.37;101644.75;4811575;29;20034;-86
2023/06/22 06:35:34;;;;;;;17.95;14.23;;;;;;;21.78;95.45;101646.97;4849210;29;20060;-88
2023/06/22 06:38:00;;;;;;;20.55;15.65;;;;;;;21.89;94.64;101648.31;4891199;29;20489;-93
2023/06/22 06:40:25;;;;;;;21.17;16.23;;;;;;;21.89;95.94;101644.78;4884918;29;20115;-90
2023/06/22 06:42:50;;;;;;;20.83;15.33;;;;;;;21.91;94.58;101646.06;4889104;29;20029;-88
2023/06/22 06:45:22;;;;;;;23.17;16.03;;;;;;;22.00;94.08;101648.03;4897016;29;20077;-92
2023/06/22 06:47:48;;;;;;;19.13;15.73;;;;;;;22.11;94.53;101648.53;4898087;29;20052;-93
2023/06/22 06:50:14;;;;;;;22.88;15.70;;;;;;;22.13;92.77;101658.00;4915050;29;20107;-96
2023/06/22 06:52:40;;;;;;;22.48;15.43;;;;;;;22.14;92.22;101651.44;4901913;29;20536;-96
2023/06/22 06:55:09;;;;;;;18.97;14.27;;;;;;;22.07;90.72;101656.56;4900416;29;20079;-93
2023/06/22 07:36:21;;;;;;;22.30;17.65;;;;;;;21.35;95.27;101618.34;4926538;29;20069;-96
2023/06/22 07:38:46;;;;;;;22.90;17.67;;;;;;;21.27;96.01;101614.47;4925600;29;20040;-95
2023/06/22 07:41:24;;;;;;;23.52;17.90;;;;;;;21.36;95.10;101624.63;4923112;29;20039;-88
2023/06/22 07:43:50;;;;;;;23.65;17.63;;;;;;;21.29;96.71;101609.50;4911970;29;20040;-89
2023/06/22 07:46:15;;;;;;;28.23;19.13;;;;;;;21.41;96.73;101610.84;4909514;29;20036;-87
2023/06/22 07:49:08;;;;;;;25.05;17.27;;;;;;;21.60;96.65;101610.63;4915723;29;20135;-88
2023/06/22 07:51:33;;;;;;;21.63;17.45;;;;;;;21.85;96.23;101608.31;4929117;29;20073;-87
2023/06/22 07:53:59;;;;;;;23.37;17.87;;;;;;;22.00;94.88;101596.19;4918994;29;20033;-86
2023/06/22 07:56:24;;;;;;;22.17;17.30;;;;;;;22.26;91.67;101589.97;4909039;29;20040;-86
2023/06/22 07:58:49;;;;;;;22.53;18.70;;;;;;;22.55;91.51;101592.09;4912585;29;20123;-87
2023/06/22 08:01:16;;;;;;;24.77;19.37;;;;;;;22.86;89.76;101588.41;4917679;29;20028;-87
2023/06/22 08:03:43;;;;;;;23.90;18.95;;;;;;;23.08;86.91;101579.19;4916354;29;20032;-86
2023/06/22 08:06:09;;;;;;;24.63;18.63;;;;;;;23.27;85.93;101578.03;4898427;29;20032;-87
2023/06/22 08:08:35;;;;;;;23.90;18.80;;;;;;;23.57;85.23;101575.34;4917191;29;20369;-87
2023/06/22 08:11:00;;;;;;;23.57;18.40;;;;;;;23.74;83.08;101553.38;4916687;29;20526;-87
2023/06/22 08:13:26;;;;;;;20.40;17.50;;;;;;;23.75;81.63;101549.50;4917364;29;20286;-87
2023/06/22 08:15:51;;;;;;;21.53;17.67;;;;;;;23.67;81.80;101542.16;4916918;29;20064;-87
2023/06/22 08:18:16;;;;;;;21.30;17.20;;;;;;;23.70;82.43;101554.38;4917504;29;20507;-86
2023/06/22 08:20:42;;;;;;;21.20;16.57;;;;;;;23.64;83.53;101552.97;4916356;29;20040;-87
2023/06/22 08:23:07;;;;;;;20.27;16.95;;;;;;;23.61;82.33;101548.16;4917595;29;20079;-87
2023/06/22 08:25:34;;;;;;;23.03;16.43;;;;;;;23.57;81.58;101545.25;4916856;29;20042;-87
2023/06/22 08:28:00;;;;;;;22.10;16.13;;;;;;;23.49;81.19;101544.16;4917278;29;20031;-86
2023/06/22 08:30:25;;;;;;;23.05;16.67;;;;;;;23.44;81.08;101536.97;4916683;29;20036;-87
2023/06/22 08:32:51;;;;;;;18.97;15.70;;;;;;;23.53;80.23;101547.84;4916910;29;20552;-87
2023/06/22 08:35:16;;;;;;;21.77;16.47;;;;;;;23.52;79.70;101540.78;4916371;29;20032;-86
2023/06/22 08:37:42;;;;;;;21.00;15.83;;;;;;;23.55;79.60;101544.81;4916461;29;20300;-86
2023/06/22 08:40:09;;;;;;;19.27;15.13;;;;;;;23.55;79.54;101539.34;4916795;29;20035;-87
2023/06/22 08:42:40;;;;;;;16.80;14.52;;;;;;;23.62;79.35;101553.28;4916694;29;20024;-87
2023/06/22 08:45:06;;;;;;;19.75;14.75;;;;;;;23.66;79.24;101550.69;4916336;29;20044;-87
2023/06/22 08:47:31;;;;;;;17.85;14.10;;;;;;;23.71;80.46;101537.63;4916514;29;20028;-87
2023/06/22 08:49:57;;;;;;;17.23;13.73;;;;;;;23.80;79.63;101534.03;4915364;29;20091;-86
2023/06/22 08:52:23;;;;;;;19.02;13.60;;;;;;;23.90;78.46;101528.19;4916874;29;20040;-87
2023/06/22 08:54:48;;;;;;;14.83;12.70;;;;;;;23.86;77.36;101532.72;4916310;29;20515;-87
2023/06/22 08:57:14;;;;;;;17.70;13.50;;;;;;;23.89;75.34;101532.06;4914173;29;20056;-87
2023/06/22 08:59:40;;;;;;;20.13;14.30;;;;;;;23.78;76.33;101523.44;4914300;29;20062;-88
2023/06/22 09:02:05;;;;;;;20.40;14.60;;;;;;;23.67;76.58;101524.94;4914421;29;20028;-87
2023/06/22 09:04:34;;;;;;;16.80;13.07;;;;;;;23.65;76.55;101536.22;4913329;29;20441;-86
2023/06/22 09:07:02;;;;;;;17.10;13.30;;;;;;;23.66;78.63;101521.41;4913682;29;21262;-86
2023/06/22 09:09:27;;;;;;;17.45;12.82;;;;;;;23.69;76.03;101528.13;4914650;29;20032;-85
2023/06/22 09:11:53;;;;;;;15.67;12.63;;;;;;;23.79;76.62;101521.50;4913419;29;20123;-85
2023/06/22 09:14:18;;;;;;;16.27;12.93;;;;;;;23.81;75.41;101524.69;4916581;29;20330;-85
2023/06/22 09:16:44;;;;;;;16.13;12.70;;;;;;;23.82;74.64;101518.09;4908541;29;20469;-84
2023/06/22 09:19:09;;;;;;;16.07;12.00;;;;;;;23.85;74.38;101514.69;4917108;29;20024;-85
2023/06/22 09:21:34;;;;;;;15.03;12.00;;;;;;;23.78;75.09;101507.03;4919002;29;20555;-86
2023/06/22 09:24:00;;;;;;;14.27;11.50;;;;;;;23.87;74.20;101504.22;4928928;29;20048;-85
2023/06/22 09:26:25;;;;;;;14.13;11.47;;;;;;;23.90;73.13;101511.78;4918814;29;20033;-85
2023/06/22 09:28:51;;;;;;;21.47;12.43;;;;;;;23.80;73.23;101502.03;4927611;29;20028;-85
2023/06/22 09:33:53;;;;;;;17.88;11.82;;;;;;;23.90;72.99;101511.78;5705501;23;20504;-86
2023/06/22 09:36:18;;;;;;;13.63;10.70;;;;;;;23.90;72.31;101517.25;4916764;29;20035;-86
2023/06/22 09:38:44;;;;;;;16.40;11.27;;;;;;;23.83;73.58;101512.28;4917538;29;20618;-87
2023/06/22 09:41:09;;;;;;;12.30;10.70;;;;;;;23.85;74.24;101503.75;4910337;29;20024;-87
2023/06/22 09:43:37;;;;;;;14.67;11.20;;;;;;;23.81;73.36;101513.75;4900420;29;20035;-88
2023/06/22 09:46:02;;;;;;;13.70;11.10;;;;;;;23.69;75.49;101511.72;4904314;29;20032;-87
2023/06/22 09:48:30;;;;;;;15.83;11.10;;;;;;;23.61;73.05;101505.19;4917517;29;20464;-87
2023/06/22 09:50:56;;;;;;;13.98;10.32;;;;;;;23.50;75.18;101504.75;4921235;29;20032;-88
2023/06/22 09:53:21;;;;;;;13.50;10.35;;;;;;;23.50;74.29;101502.03;4916242;29;20032;-88
2023/06/22 09:55:47;;;;;;;14.87;11.00;;;;;;;23.46;75.21;101498.38;4900444;29;20068;-89
2023/06/22 09:58:12;;;;;;;15.57;10.80;;;;;;;23.39;74.17;101500.81;4879405;29;20063;-90
2023/06/22 10:00:37;;;;;;;14.63;9.73;;;;;;;23.42;75.32;101506.41;4880175;29;20413;-88
2023/06/22 10:03:03;;;;;;;14.30;9.63;;;;;;;23.39;73.80;101498.84;4900201;29;20036;-87
2023/06/22 10:05:28;;;;;;;16.40;9.47;;;;;;;23.39;74.39;101495.34;4903097;29;20032;-87
2023/06/22 10:07:53;;;;;;;17.63;10.57;;;;;;;23.43;73.22;101504.50;4888754;29;20112;-87
2023/06/22 10:10:19;;;;;;;11.67;10.00;;;;;;;23.42;73.96;101498.19;4919239;29;20079;-85
2023/06/22 10:12:54;;;;;;;13.60;10.90;;;;;;;23.40;75.15;101502.41;4922722;29;20072;-87
2023/06/22 10:15:21;;;;;;;12.90;10.43;;;;;;;23.33;74.71;101483.78;4922959;29;20033;-86
2023/06/22 10:17:46;;;;;;;14.60;10.20;;;;;;;23.40;75.23;101494.22;4914901;29;20032;-86
2023/06/22 10:20:12;;;;;;;12.60;10.07;;;;;;;23.52;75.01;101498.97;4930520;29;20092;-86
2023/06/22 10:22:42;;;;;;;11.80;10.00;;;;;;;23.57;73.68;101490.56;4917064;29;20336;-86
2023/06/22 10:25:08;;;;;;;15.40;10.95;;;;;;;23.74;74.19;101498.66;4899123;29;20056;-86
2023/06/22 10:27:34;;;;;;;14.25;10.98;;;;;;;23.85;72.99;101487.34;4893787;29;20524;-86
2023/06/22 10:30:00;;;;;;;12.17;10.60;;;;;;;23.88;72.80;101494.88;4909185;29;20051;-86
2023/06/22 10:32:25;;;;;;;17.13;9.93;;;;;;;24.00;73.56;101494.19;4894062;29;20040;-86
2023/06/22 10:34:50;;;;;;;14.37;10.30;;;;;;;24.14;73.11;101505.66;4894190;29;20072;-86
2023/06/22 10:37:15;;;;;;;13.77;10.00;;;;;;;24.17;72.95;101502.25;4900883;29;20123;-86
2023/06/22 10:39:41;;;;;;;13.33;10.33;;;;;;;24.16;75.49;101508.88;4914601;29;20036;-86
2023/06/22 10:42:07;;;;;;;13.40;11.00;;;;;;;24.00;73.89;101511.41;4894789;29;20043;-87
2023/06/22 10:44:32;;;;;;;14.15;10.85;;;;;;;23.84;77.49;101519.34;4905308;29;20057;-86
2023/06/22 10:46:58;;;;;;;12.83;11.17;;;;;;;23.54;78.15;101529.53;4898711;29;20036;-86
2023/06/22 10:49:23;;;;;;;15.57;12.47;;;;;;;23.20;84.26;101528.50;4914905;29;20051;-86
2023/06/22 10:51:48;;;;;;;19.95;12.55;;;;;;;22.56;98.56;101538.28;4914803;29;20040;-87
2023/06/22 10:54:14;;;;;;;19.30;14.23;;;;;;;21.91;100.00;101536.13;4914212;29;20028;-85
2023/06/22 10:56:40;;;;;;;21.90;15.37;;;;;;;21.37;100.00;101541.69;4894444;29;20051;-84
2023/06/22 10:59:05;;;;;;;23.90;16.92;;;;;;;20.91;100.00;101535.56;4913168;29;20035;-83
2023/06/22 11:01:31;;;;;;;25.70;17.37;;;;;;;20.67;100.00;101534.72;4914300;29;20028;-82
2023/06/22 11:03:57;;;;;;;23.83;18.87;;;;;;;20.43;100.00;101515.97;4893937;29;20024;-82
2023/06/22 11:06:22;;;;;;;25.33;19.17;;;;;;;20.42;100.00;101534.22;4892662;29;20032;-83
2023/06/22 11:08:47;;;;;;;28.57;22.10;;;;;;;20.43;100.00;101533.13;4912756;29;20118;-83
2023/06/22 11:11:13;;;;;;;27.60;21.33;;;;;;;20.55;100.00;101535.25;4911637;29;20036;-84
2023/06/22 11:13:38;;;;;;;24.60;20.90;;;;;;;20.38;100.00;101538.66;4913786;29;20036;-82
2023/06/22 11:16:03;;;;;;;30.10;22.20;;;;;;;20.31;100.00;101545.66;4899284;29;20033;-83
2023/06/22 11:18:33;;;;;;;30.63;23.17;;;;;;;20.02;100.00;101542.19;4908829;29;20032;-82
2023/06/22 11:20:58;;;;;;;31.13;23.90;;;;;;;19.76;100.00;101539.16;4914363;29;20387;-83
2023/06/22 11:23:26;;;;;;;32.22;23.95;;;;;;;19.56;100.00;101532.19;4913952;29;20023;-83
2023/06/22 11:25:51;;;;;;;39.90;26.42;;;;;;;19.41;100.00;101530.59;4903856;29;20060;-83
2023/06/22 11:28:16;;;;;;;47.00;27.10;;;;;;;19.46;100.00;101547.63;4912715;29;20032;-84
2023/06/22 11:30:42;;;;;;;38.13;26.60;;;;;;;19.52;100.00;101561.91;4895051;29;20072;-83
2023/06/22 11:33:07;;;;;;;38.70;27.47;;;;;;;19.52;100.00;101561.91;4895268;29;20396;-83
2023/06/22 11:35:32;;;;;;;39.55;28.10;;;;;;;19.46;100.00;101546.78;4894145;29;20047;-84
2023/06/22 11:37:58;;;;;;;46.70;28.53;;;;;;;19.39;100.00;101558.06;4903858;29;20063;-84
2023/06/22 11:40:23;;;;;;;44.97;29.13;;;;;;;19.33;100.00;101548.41;4910089;29;20139;-85
2023/06/22 11:42:49;;;;;;;44.37;30.80;;;;;;;19.40;100.00;101556.16;4913627;29;20047;-85
2023/06/22 11:45:14;;;;;;;52.85;31.42;;;;;;;19.33;100.00;101553.84;4907739;29;20458;-86
2023/06/22 11:47:39;;;;;;;52.10;29.67;;;;;;;19.08;100.00;101539.59;4912547;29;20071;-85
2023/06/22 11:50:06;;;;;;;45.47;30.90;;;;;;;19.03;100.00;101531.53;4913577;29;20024;-85
2023/06/22 11:52:31;;;;;;;52.67;33.55;;;;;;;18.95;100.00;101521.38;4911497;29;20501;-85
2023/06/22 11:54:59;;;;;;;58.10;34.50;;;;;;;18.94;100.00;101506.16;4894229;29;20048;-86
2023/06/22 11:57:24;;;;;;;66.07;34.13;;;;;;;18.78;100.00;101492.84;4913770;29;20040;-87
2023/06/22 11:59:49;;;;;;;60.73;36.10;;;;;;;18.83;100.00;101481.88;4897076;29;20087;-86
2023/06/22 12:02:15;;;;;;;59.70;38.37;;;;;;;18.90;100.00;101492.34;4914016;29;20291;-86
2023/06/22 12:04:40;;;;;;;61.60;40.57;;;;;;;18.88;100.00;101484.50;4899704;29;20448;-86
2023/06/22 12:07:05;;;;;;;59.20;39.23;;;;;;;18.90;100.00;101473.34;4902390;29;20029;-86
2023/06/22 12:09:41;;;;;;;65.27;41.97;;;;;;;18.84;100.00;101469.13;4937080;23;20526;-86
2023/06/22 12:13:20;;;;;;;63.22;40.95;;;;;;;18.61;100.00;101426.34;4911583;29;20044;-86
2023/06/22 12:15:49;;;;;;;67.60;42.22;;;;;;;18.82;100.00;101430.59;4817671;29;20530;-87
2023/06/22 12:18:20;;;;;;;64.85;42.75;;;;;;;18.75;100.00;101428.28;4820742;29;20046;-86
2023/06/22 12:20:46;;;;;;;60.50;41.63;;;;;;;18.64;100.00;101419.50;4839801;29;20065;-86
2023/06/22 12:23:11;;;;;;;58.97;41.07;;;;;;;18.86;100.00;101448.72;4861725;29;20033;-87
2023/06/22 12:25:36;;;;;;;60.85;41.10;;;;;;;18.85;100.00;101465.31;4878119;29;20560;-86
2023/06/22 12:28:33;;;;;;;53.13;37.33;;;;;;;18.77;100.00;101473.03;5515355;23;20488;-86
2023/06/22 12:30:59;;;;;;;52.60;36.55;;;;;;;18.58;100.00;101445.94;4914140;29;20048;-87
2023/06/22 12:33:24;;;;;;;58.45;33.35;;;;;;;18.54;100.00;101454.94;4922808;29;20020;-89
2023/06/22 12:36:12;;;;;;;73.20;32.23;;;;;;;18.27;100.00;101467.31;4920305;29;20044;-88
2023/06/22 12:38:38;;;;;;;58.00;33.17;;;;;;;17.86;100.00;101420.69;4919176;29;20056;-83
2023/06/22 12:41:03;;;;;;;45.20;32.80;;;;;;;17.90;100.00;101447.22;4916176;29;20425;-84
2023/06/22 12:43:28;;;;;;;51.27;34.00;;;;;;;17.98;100.00;101447.38;4914325;29;20277;-84
2023/06/22 12:45:54;;;;;;;58.25;37.95;;;;;;;18.03;100.00;101443.78;4914533;29;20032;-84
2023/06/22 12:48:19;;;;;;;52.40;35.73;;;;;;;18.14;100.00;101449.88;4916728;29;20031;-84